JBM6FC EDDH-EGLC
Flight info
| Callsign | JBM6FC |
|---|---|
| Flight time | 1h 20m |
| Altitude | 40000 |
| Route | WSN4D WSN N125 ITMIZ DCT GALSO Q63 SUMUM |
| Aircraft | B736/M-SDE2E3FGHIRWXY/LB1 |
Departure
| Time | 2026-04-22 00:21 |
|---|---|
| Airport | Hamburg Helmut Schmidt Airport (EDDH) |
Arrival
| Time | 2026-04-22 01:41 |
|---|---|
| Airport | London City Airport (EGLC) |
| Time | Latitude | Longitude | Altitude | Speed | Heading |
|---|---|---|---|---|---|
| 2026-04-21 23:56 | 53.62794 | 9.99347 | 46 ft | 0 kts | 242° |
| 2026-04-22 00:10 | 53.62799 | 9.99364 | 43 ft | 4 kts | 243° |
| 2026-04-22 00:10 | 53.62810 | 9.99405 | 46 ft | 4 kts | 249° |
| 2026-04-22 00:11 | 53.62818 | 9.99448 | 45 ft | 4 kts | 267° |
| 2026-04-22 00:11 | 53.62812 | 9.99482 | 46 ft | 2 kts | 332° |
| 2026-04-22 00:11 | 53.62811 | 9.99483 | 46 ft | 1 kts | 333° |
| 2026-04-22 00:13 | 53.62826 | 9.99471 | 42 ft | 8 kts | 333° |
| 2026-04-22 00:13 | 53.62906 | 9.99402 | 46 ft | 18 kts | 333° |
| 2026-04-22 00:13 | 53.63017 | 9.99294 | 46 ft | 17 kts | 309° |
| 2026-04-22 00:14 | 53.62975 | 9.99130 | 46 ft | 17 kts | 229° |
| 2026-04-22 00:14 | 53.62904 | 9.98984 | 46 ft | 16 kts | 231° |
| 2026-04-22 00:14 | 53.62827 | 9.98827 | 46 ft | 19 kts | 230° |
| 2026-04-22 00:14 | 53.62738 | 9.98647 | 46 ft | 21 kts | 230° |
| 2026-04-22 00:15 | 53.62637 | 9.98442 | 46 ft | 24 kts | 230° |
| 2026-04-22 00:15 | 53.62530 | 9.98226 | 46 ft | 21 kts | 230° |
| 2026-04-22 00:15 | 53.62455 | 9.98065 | 46 ft | 17 kts | 239° |
| 2026-04-22 00:15 | 53.62435 | 9.97979 | 46 ft | 0 kts | 258° |
| 2026-04-22 00:18 | 53.62435 | 9.97977 | 46 ft | 1 kts | 258° |
| 2026-04-22 00:18 | 53.62427 | 9.97907 | 45 ft | 10 kts | 262° |
| 2026-04-22 00:18 | 53.62464 | 9.97789 | 40 ft | 14 kts | 322° |
| 2026-04-22 00:18 | 53.62536 | 9.97807 | 40 ft | 0 kts | 51° |
| 2026-04-22 00:20 | 53.62537 | 9.97808 | 37 ft | 1 kts | 51° |
| 2026-04-22 00:21 | 53.62576 | 9.97889 | 40 ft | 35 kts | 50° |
| 2026-04-22 00:21 | 53.62902 | 9.98549 | 43 ft | 108 kts | 50° |
| 2026-04-22 00:21 | 53.63497 | 9.99751 | 181 ft | 148 kts | 50° |
| 2026-04-22 00:21 | 53.64140 | 10.01073 | 959 ft | 139 kts | 51° |
| 2026-04-22 00:22 | 53.64746 | 10.02293 | 1730 ft | 138 kts | 51° |
| 2026-04-22 00:22 | 53.65411 | 10.03633 | 2228 ft | 163 kts | 51° |
| 2026-04-22 00:22 | 53.66209 | 10.05231 | 2645 ft | 192 kts | 52° |
| 2026-04-22 00:22 | 53.67087 | 10.07037 | 3243 ft | 207 kts | 53° |
| 2026-04-22 00:23 | 53.68001 | 10.08939 | 4112 ft | 211 kts | 51° |
| 2026-04-22 00:23 | 53.69150 | 10.10399 | 5052 ft | 215 kts | 23° |
| 2026-04-22 00:23 | 53.70656 | 10.10592 | 5899 ft | 225 kts | 348° |
| 2026-04-22 00:23 | 53.72047 | 10.09190 | 6541 ft | 250 kts | 314° |
| 2026-04-22 00:24 | 53.72947 | 10.06537 | 7147 ft | 270 kts | 294° |
| 2026-04-22 00:24 | 53.73706 | 10.03553 | 7918 ft | 282 kts | 297° |
| 2026-04-22 00:24 | 53.74556 | 10.00543 | 8906 ft | 285 kts | 297° |
| 2026-04-22 00:24 | 53.75070 | 9.97284 | 9893 ft | 295 kts | 272° |
| 2026-04-22 00:25 | 53.74623 | 9.93861 | 10814 ft | 305 kts | 247° |
| 2026-04-22 00:25 | 53.73706 | 9.90518 | 11431 ft | 323 kts | 244° |
| 2026-04-22 00:25 | 53.72751 | 9.87051 | 12168 ft | 336 kts | 245° |
| 2026-04-22 00:25 | 53.71782 | 9.83419 | 13105 ft | 342 kts | 246° |
| 2026-04-22 00:26 | 53.70817 | 9.79710 | 14133 ft | 347 kts | 246° |
| 2026-04-22 00:26 | 53.69850 | 9.75945 | 15048 ft | 353 kts | 246° |
| 2026-04-22 00:26 | 53.68871 | 9.72108 | 15950 ft | 359 kts | 246° |
| 2026-04-22 00:26 | 53.67881 | 9.68215 | 16877 ft | 365 kts | 246° |
| 2026-04-22 00:27 | 53.66869 | 9.64246 | 17802 ft | 370 kts | 246° |
| 2026-04-22 00:27 | 53.65841 | 9.60226 | 18714 ft | 377 kts | 246° |
| 2026-04-22 00:27 | 53.64692 | 9.56288 | 19470 ft | 383 kts | 237° |
| 2026-04-22 00:27 | 53.63159 | 9.52578 | 20273 ft | 388 kts | 232° |
| 2026-04-22 00:28 | 53.61520 | 9.48919 | 21096 ft | 394 kts | 231° |
| 2026-04-22 00:28 | 53.59854 | 9.45217 | 21908 ft | 400 kts | 231° |
| 2026-04-22 00:28 | 53.58178 | 9.41425 | 22714 ft | 407 kts | 232° |
| 2026-04-22 00:28 | 53.56499 | 9.37556 | 23514 ft | 413 kts | 232° |
| 2026-04-22 00:29 | 53.54797 | 9.33608 | 24260 ft | 420 kts | 232° |
| 2026-04-22 00:29 | 53.53075 | 9.29613 | 24964 ft | 424 kts | 232° |
| 2026-04-22 00:29 | 53.51336 | 9.25591 | 25697 ft | 428 kts | 232° |
| 2026-04-22 00:29 | 53.49596 | 9.21585 | 26412 ft | 432 kts | 232° |
| 2026-04-22 00:30 | 53.47811 | 9.17481 | 27084 ft | 437 kts | 232° |
| 2026-04-22 00:30 | 53.46006 | 9.13338 | 27762 ft | 442 kts | 232° |
| 2026-04-22 00:30 | 53.44178 | 9.09144 | 28425 ft | 447 kts | 232° |
| 2026-04-22 00:30 | 53.42333 | 9.04919 | 29065 ft | 452 kts | 232° |
| 2026-04-22 00:31 | 53.40465 | 9.00647 | 29708 ft | 457 kts | 232° |
| 2026-04-22 00:31 | 53.38578 | 8.96335 | 30337 ft | 461 kts | 232° |
| 2026-04-22 00:31 | 53.36672 | 8.91989 | 30882 ft | 464 kts | 232° |
| 2026-04-22 00:31 | 53.34795 | 8.87585 | 31440 ft | 467 kts | 238° |
| 2026-04-22 00:32 | 53.33470 | 8.82813 | 31955 ft | 468 kts | 251° |
| 2026-04-22 00:32 | 53.32409 | 8.77666 | 32526 ft | 468 kts | 252° |
| 2026-04-22 00:32 | 53.31355 | 8.72513 | 33067 ft | 468 kts | 251° |
| 2026-04-22 00:32 | 53.30253 | 8.67412 | 33747 ft | 465 kts | 251° |
| 2026-04-22 00:33 | 53.29134 | 8.62378 | 34494 ft | 459 kts | 251° |
| 2026-04-22 00:33 | 53.28036 | 8.57387 | 35067 ft | 456 kts | 251° |
| 2026-04-22 00:33 | 53.26947 | 8.52414 | 35494 ft | 456 kts | 251° |
| 2026-04-22 00:33 | 53.25872 | 8.47422 | 35874 ft | 457 kts | 253° |
| 2026-04-22 00:34 | 53.24896 | 8.42377 | 36337 ft | 455 kts | 255° |
| 2026-04-22 00:34 | 53.23977 | 8.37350 | 36855 ft | 452 kts | 255° |
| 2026-04-22 00:34 | 53.23078 | 8.32400 | 37318 ft | 451 kts | 255° |
| 2026-04-22 00:34 | 53.22156 | 8.27398 | 37735 ft | 451 kts | 255° |
| 2026-04-22 00:35 | 53.21220 | 8.22404 | 38166 ft | 450 kts | 255° |
| 2026-04-22 00:35 | 53.20278 | 8.17442 | 38617 ft | 448 kts | 254° |
| 2026-04-22 00:35 | 53.19334 | 8.12497 | 39036 ft | 448 kts | 254° |
| 2026-04-22 00:35 | 53.18392 | 8.07539 | 39333 ft | 448 kts | 255° |
| 2026-04-22 00:36 | 53.17457 | 8.02588 | 39625 ft | 447 kts | 255° |
| 2026-04-22 00:36 | 53.16526 | 7.97651 | 39905 ft | 447 kts | 255° |
| 2026-04-22 00:36 | 53.15591 | 7.92697 | 40166 ft | 448 kts | 254° |
| 2026-04-22 00:36 | 53.14668 | 7.87823 | 40392 ft | 449 kts | 254° |
| 2026-04-22 00:37 | 53.13733 | 7.82908 | 40367 ft | 454 kts | 254° |
| 2026-04-22 00:37 | 53.11826 | 7.72911 | 40366 ft | 451 kts | 254° |
| 2026-04-22 00:38 | 53.09814 | 7.63145 | 40371 ft | 445 kts | 249° |
| 2026-04-22 00:38 | 53.07231 | 7.53777 | 40378 ft | 446 kts | 246° |
| 2026-04-22 00:39 | 53.04565 | 7.44553 | 40378 ft | 446 kts | 246° |
| 2026-04-22 00:39 | 53.01901 | 7.35245 | 40376 ft | 446 kts | 246° |
| 2026-04-22 00:40 | 52.99257 | 7.25922 | 40380 ft | 446 kts | 246° |
| 2026-04-22 00:40 | 52.96619 | 7.16603 | 40373 ft | 446 kts | 246° |
| 2026-04-22 00:41 | 52.93991 | 7.07355 | 40373 ft | 446 kts | 246° |
| 2026-04-22 00:41 | 52.91340 | 6.98060 | 40373 ft | 446 kts | 246° |
| 2026-04-22 00:42 | 52.88687 | 6.88800 | 40378 ft | 446 kts | 246° |
| 2026-04-22 00:42 | 52.86020 | 6.79531 | 40375 ft | 446 kts | 246° |
| 2026-04-22 00:43 | 52.83348 | 6.70277 | 40375 ft | 445 kts | 246° |
| 2026-04-22 00:43 | 52.80690 | 6.61113 | 40369 ft | 445 kts | 246° |
| 2026-04-22 00:44 | 52.78007 | 6.51897 | 40367 ft | 445 kts | 246° |
| 2026-04-22 00:44 | 52.75322 | 6.42709 | 40362 ft | 443 kts | 245° |
| 2026-04-22 00:45 | 52.72639 | 6.33563 | 40361 ft | 442 kts | 245° |
| 2026-04-22 00:45 | 52.69957 | 6.24456 | 40365 ft | 441 kts | 245° |
| 2026-04-22 00:46 | 52.67283 | 6.15401 | 40369 ft | 443 kts | 245° |
| 2026-04-22 00:46 | 52.64575 | 6.06275 | 40368 ft | 445 kts | 245° |
| 2026-04-22 00:47 | 52.61851 | 5.97132 | 40369 ft | 446 kts | 245° |
| 2026-04-22 00:47 | 52.59112 | 5.87975 | 40370 ft | 446 kts | 245° |
| 2026-04-22 00:48 | 52.56366 | 5.78827 | 40373 ft | 446 kts | 245° |
| 2026-04-22 00:48 | 52.53640 | 5.69777 | 40372 ft | 444 kts | 245° |
| 2026-04-22 00:49 | 52.50893 | 5.60699 | 40374 ft | 443 kts | 245° |
| 2026-04-22 00:49 | 52.48157 | 5.51687 | 40375 ft | 441 kts | 245° |
| 2026-04-22 00:50 | 52.45418 | 5.42699 | 40372 ft | 439 kts | 245° |
| 2026-04-22 00:50 | 52.42731 | 5.33914 | 40370 ft | 438 kts | 245° |
| 2026-04-22 00:51 | 52.39998 | 5.25010 | 40369 ft | 437 kts | 245° |
| 2026-04-22 00:51 | 52.37267 | 5.16145 | 40366 ft | 436 kts | 245° |
| 2026-04-22 00:52 | 52.34582 | 5.07459 | 40354 ft | 436 kts | 245° |
| 2026-04-22 00:52 | 52.31836 | 4.98611 | 40346 ft | 436 kts | 245° |
| 2026-04-22 00:53 | 52.29089 | 4.89797 | 40343 ft | 436 kts | 245° |
| 2026-04-22 00:53 | 52.26352 | 4.81039 | 40346 ft | 436 kts | 245° |
| 2026-04-22 00:54 | 52.23587 | 4.72224 | 40345 ft | 437 kts | 245° |
| 2026-04-22 00:54 | 52.20811 | 4.63411 | 40349 ft | 437 kts | 244° |
| 2026-04-22 00:55 | 52.18029 | 4.54606 | 40351 ft | 438 kts | 244° |
| 2026-04-22 00:55 | 52.13853 | 4.41442 | 40352 ft | 438 kts | 244° |
| 2026-04-22 00:56 | 52.11043 | 4.32630 | 40348 ft | 439 kts | 244° |
| 2026-04-22 00:56 | 52.08241 | 4.23876 | 39961 ft | 444 kts | 244° |
| 2026-04-22 00:57 | 52.06817 | 4.19443 | 39469 ft | 442 kts | 244° |
| 2026-04-22 00:57 | 52.05394 | 4.15017 | 38889 ft | 442 kts | 244° |
| 2026-04-22 00:57 | 52.03970 | 4.10592 | 38156 ft | 442 kts | 244° |
| 2026-04-22 00:57 | 52.02545 | 4.06172 | 37524 ft | 441 kts | 244° |
| 2026-04-22 00:58 | 52.01124 | 4.01772 | 36882 ft | 440 kts | 244° |
| 2026-04-22 00:58 | 51.99722 | 3.97441 | 36264 ft | 439 kts | 244° |
| 2026-04-22 00:58 | 51.98308 | 3.93084 | 35802 ft | 434 kts | 243° |
| 2026-04-22 00:58 | 51.96906 | 3.88773 | 35330 ft | 430 kts | 243° |
| 2026-04-22 00:59 | 51.95516 | 3.84507 | 34869 ft | 426 kts | 243° |
| 2026-04-22 00:59 | 51.94142 | 3.80290 | 34417 ft | 422 kts | 243° |
| 2026-04-22 00:59 | 51.92778 | 3.76112 | 33891 ft | 418 kts | 243° |
| 2026-04-22 00:59 | 51.91420 | 3.71962 | 33403 ft | 414 kts | 243° |
| 2026-04-22 01:00 | 51.90077 | 3.67864 | 32950 ft | 410 kts | 243° |
| 2026-04-22 01:00 | 51.88762 | 3.63855 | 32506 ft | 406 kts | 242° |
| 2026-04-22 01:00 | 51.87444 | 3.59842 | 32069 ft | 403 kts | 242° |
| 2026-04-22 01:00 | 51.86130 | 3.55847 | 31638 ft | 399 kts | 242° |
| 2026-04-22 01:01 | 51.84830 | 3.51900 | 31231 ft | 397 kts | 242° |
| 2026-04-22 01:01 | 51.83535 | 3.47973 | 30819 ft | 394 kts | 241° |
| 2026-04-22 01:01 | 51.82247 | 3.44079 | 30399 ft | 392 kts | 240° |
| 2026-04-22 01:01 | 51.80966 | 3.40216 | 29933 ft | 389 kts | 240° |
| 2026-04-22 01:02 | 51.79943 | 3.37133 | 29564 ft | 386 kts | 240° |
| 2026-04-22 01:02 | 51.78678 | 3.33326 | 29132 ft | 382 kts | 240° |
| 2026-04-22 01:02 | 51.77443 | 3.29614 | 28694 ft | 379 kts | 240° |
| 2026-04-22 01:02 | 51.76198 | 3.25880 | 28275 ft | 375 kts | 240° |
| 2026-04-22 01:03 | 51.74968 | 3.22194 | 27844 ft | 373 kts | 240° |
| 2026-04-22 01:03 | 51.73805 | 3.18460 | 27422 ft | 371 kts | 247° |
| 2026-04-22 01:03 | 51.73016 | 3.14507 | 26761 ft | 375 kts | 258° |
| 2026-04-22 01:03 | 51.72612 | 3.10347 | 26248 ft | 376 kts | 263° |
| 2026-04-22 01:04 | 51.72277 | 3.06180 | 25788 ft | 374 kts | 263° |
| 2026-04-22 01:04 | 51.71951 | 3.02020 | 25375 ft | 372 kts | 263° |
| 2026-04-22 01:04 | 51.71624 | 2.97958 | 24977 ft | 369 kts | 263° |
| 2026-04-22 01:04 | 51.71283 | 2.93861 | 24574 ft | 368 kts | 263° |
| 2026-04-22 01:05 | 51.70934 | 2.89790 | 24169 ft | 365 kts | 262° |
| 2026-04-22 01:05 | 51.70582 | 2.85741 | 23733 ft | 364 kts | 262° |
| 2026-04-22 01:05 | 51.70230 | 2.81718 | 23280 ft | 361 kts | 262° |
| 2026-04-22 01:05 | 51.69879 | 2.77730 | 22860 ft | 358 kts | 262° |
| 2026-04-22 01:06 | 51.69530 | 2.73785 | 22458 ft | 355 kts | 262° |
| 2026-04-22 01:06 | 51.69182 | 2.69871 | 22064 ft | 351 kts | 262° |
| 2026-04-22 01:06 | 51.68836 | 2.65987 | 21675 ft | 348 kts | 262° |
| 2026-04-22 01:06 | 51.68497 | 2.62201 | 21321 ft | 344 kts | 263° |
| 2026-04-22 01:07 | 51.68157 | 2.58402 | 20936 ft | 342 kts | 263° |
| 2026-04-22 01:07 | 51.67818 | 2.54628 | 20562 ft | 339 kts | 263° |
| 2026-04-22 01:07 | 51.67480 | 2.50879 | 20184 ft | 337 kts | 263° |
| 2026-04-22 01:07 | 51.67138 | 2.47147 | 19776 ft | 336 kts | 262° |
| 2026-04-22 01:08 | 51.66791 | 2.43427 | 19338 ft | 336 kts | 262° |
| 2026-04-22 01:08 | 51.66442 | 2.39710 | 18953 ft | 335 kts | 262° |
| 2026-04-22 01:08 | 51.66211 | 2.37253 | 18701 ft | 334 kts | 262° |
| 2026-04-22 01:08 | 51.65750 | 2.32360 | 18136 ft | 333 kts | 262° |
| 2026-04-22 01:09 | 51.65403 | 2.28690 | 17731 ft | 331 kts | 262° |
| 2026-04-22 01:09 | 51.65058 | 2.25044 | 17347 ft | 328 kts | 262° |
| 2026-04-22 01:09 | 51.64716 | 2.21428 | 16966 ft | 326 kts | 262° |
| 2026-04-22 01:09 | 51.64373 | 2.17829 | 16590 ft | 324 kts | 262° |
| 2026-04-22 01:10 | 51.64147 | 2.15463 | 16348 ft | 322 kts | 262° |
| 2026-04-22 01:10 | 51.63849 | 2.11896 | 15974 ft | 320 kts | 269° |
| 2026-04-22 01:10 | 51.64176 | 2.08404 | 15600 ft | 315 kts | 289° |
| 2026-04-22 01:10 | 51.64894 | 2.05080 | 15236 ft | 313 kts | 292° |
| 2026-04-22 01:11 | 51.65901 | 2.00732 | 14747 ft | 312 kts | 292° |
| 2026-04-22 01:11 | 51.66658 | 1.97470 | 14383 ft | 311 kts | 292° |
| 2026-04-22 01:11 | 51.67165 | 1.95260 | 14127 ft | 311 kts | 292° |
| 2026-04-22 01:11 | 51.67908 | 1.91997 | 13732 ft | 310 kts | 291° |
| 2026-04-22 01:12 | 51.68615 | 1.88863 | 13363 ft | 309 kts | 291° |
| 2026-04-22 01:12 | 51.69359 | 1.85543 | 12985 ft | 307 kts | 291° |
| 2026-04-22 01:12 | 51.70080 | 1.82311 | 12613 ft | 306 kts | 291° |
| 2026-04-22 01:12 | 51.70795 | 1.79096 | 12252 ft | 304 kts | 291° |
| 2026-04-22 01:13 | 51.71508 | 1.75888 | 11893 ft | 303 kts | 291° |
| 2026-04-22 01:13 | 51.72216 | 1.72700 | 11537 ft | 301 kts | 291° |
| 2026-04-22 01:13 | 51.72920 | 1.69518 | 11182 ft | 300 kts | 291° |
| 2026-04-22 01:13 | 51.73612 | 1.66387 | 10843 ft | 299 kts | 291° |
| 2026-04-22 01:14 | 51.74308 | 1.63231 | 10503 ft | 298 kts | 291° |
| 2026-04-22 01:14 | 51.74703 | 1.60009 | 10324 ft | 292 kts | 269° |
| 2026-04-22 01:14 | 51.74531 | 1.56759 | 10007 ft | 289 kts | 263° |
| 2026-04-22 01:14 | 51.74304 | 1.53553 | 9708 ft | 286 kts | 263° |
| 2026-04-22 01:15 | 51.74086 | 1.50411 | 9590 ft | 277 kts | 263° |
| 2026-04-22 01:15 | 51.73883 | 1.47362 | 9456 ft | 270 kts | 263° |
| 2026-04-22 01:15 | 51.73515 | 1.44414 | 9339 ft | 266 kts | 243° |
| 2026-04-22 01:15 | 51.72452 | 1.42135 | 9343 ft | 253 kts | 216° |
| 2026-04-22 01:16 | 51.70971 | 1.40743 | 9344 ft | 244 kts | 199° |
| 2026-04-22 01:16 | 51.69419 | 1.39635 | 9337 ft | 243 kts | 198° |
| 2026-04-22 01:16 | 51.67872 | 1.38541 | 9323 ft | 244 kts | 198° |
| 2026-04-22 01:16 | 51.66309 | 1.37432 | 9334 ft | 247 kts | 199° |
| 2026-04-22 01:17 | 51.64732 | 1.36307 | 9333 ft | 249 kts | 199° |
| 2026-04-22 01:17 | 51.63152 | 1.35177 | 9325 ft | 249 kts | 199° |
| 2026-04-22 01:17 | 51.61568 | 1.34046 | 9319 ft | 249 kts | 199° |
| 2026-04-22 01:17 | 51.59982 | 1.32913 | 9317 ft | 249 kts | 197° |
| 2026-04-22 01:18 | 51.58356 | 1.32432 | 9327 ft | 237 kts | 170° |
| 2026-04-22 01:18 | 51.56758 | 1.32914 | 9328 ft | 232 kts | 159° |
| 2026-04-22 01:18 | 51.55206 | 1.33607 | 9322 ft | 232 kts | 159° |
| 2026-04-22 01:18 | 51.53650 | 1.34306 | 9314 ft | 232 kts | 159° |
| 2026-04-22 01:19 | 51.52093 | 1.34991 | 9317 ft | 231 kts | 159° |
| 2026-04-22 01:19 | 51.50540 | 1.35662 | 9313 ft | 231 kts | 161° |
| 2026-04-22 01:19 | 51.48917 | 1.35808 | 9329 ft | 238 kts | 179° |
| 2026-04-22 01:19 | 51.47265 | 1.35573 | 9318 ft | 238 kts | 179° |
| 2026-04-22 01:20 | 51.45632 | 1.35366 | 9313 ft | 240 kts | 179° |
| 2026-04-22 01:20 | 51.43970 | 1.35170 | 9319 ft | 239 kts | 178° |
| 2026-04-22 01:20 | 51.42313 | 1.34983 | 9310 ft | 239 kts | 178° |
| 2026-04-22 01:20 | 51.40658 | 1.34591 | 9305 ft | 245 kts | 193° |
| 2026-04-22 01:21 | 51.39067 | 1.33587 | 9316 ft | 246 kts | 198° |
| 2026-04-22 01:21 | 51.37494 | 1.32482 | 9308 ft | 247 kts | 198° |
| 2026-04-22 01:21 | 51.35940 | 1.31299 | 9303 ft | 251 kts | 210° |
| 2026-04-22 01:21 | 51.34784 | 1.29239 | 9311 ft | 258 kts | 241° |
| 2026-04-22 01:22 | 51.34401 | 1.26439 | 9148 ft | 265 kts | 276° |
| 2026-04-22 01:22 | 51.35011 | 1.23704 | 8955 ft | 261 kts | 304° |
| 2026-04-22 01:22 | 51.35978 | 1.21254 | 8744 ft | 258 kts | 306° |
| 2026-04-22 01:22 | 51.36947 | 1.18858 | 8531 ft | 256 kts | 306° |
| 2026-04-22 01:23 | 51.37905 | 1.16477 | 8321 ft | 253 kts | 306° |
| 2026-04-22 01:23 | 51.38851 | 1.14110 | 8130 ft | 252 kts | 306° |
| 2026-04-22 01:23 | 51.39786 | 1.11750 | 7930 ft | 251 kts | 306° |
| 2026-04-22 01:23 | 51.40718 | 1.09382 | 7735 ft | 252 kts | 305° |
| 2026-04-22 01:24 | 51.41653 | 1.07003 | 7552 ft | 253 kts | 305° |
| 2026-04-22 01:24 | 51.42574 | 1.04649 | 7348 ft | 253 kts | 305° |
| 2026-04-22 01:24 | 51.43504 | 1.02268 | 7159 ft | 252 kts | 305° |
| 2026-04-22 01:24 | 51.44432 | 0.99881 | 6958 ft | 252 kts | 305° |
| 2026-04-22 01:25 | 51.45359 | 0.97497 | 6763 ft | 251 kts | 305° |
| 2026-04-22 01:25 | 51.46282 | 0.95118 | 6556 ft | 251 kts | 305° |
| 2026-04-22 01:25 | 51.47187 | 0.92736 | 6379 ft | 251 kts | 299° |
| 2026-04-22 01:25 | 51.47586 | 0.90037 | 6329 ft | 250 kts | 274° |
| 2026-04-22 01:26 | 51.47680 | 0.87249 | 6327 ft | 251 kts | 273° |
| 2026-04-22 01:26 | 51.47777 | 0.84498 | 6316 ft | 251 kts | 273° |
| 2026-04-22 01:26 | 51.47879 | 0.81691 | 6321 ft | 252 kts | 274° |
| 2026-04-22 01:26 | 51.47981 | 0.78871 | 6220 ft | 257 kts | 273° |
| 2026-04-22 01:27 | 51.48087 | 0.75989 | 5822 ft | 264 kts | 274° |
| 2026-04-22 01:27 | 51.48197 | 0.73060 | 5553 ft | 261 kts | 274° |
| 2026-04-22 01:27 | 51.48306 | 0.70179 | 5373 ft | 256 kts | 274° |
| 2026-04-22 01:27 | 51.48410 | 0.67354 | 5204 ft | 251 kts | 274° |
| 2026-04-22 01:28 | 51.48510 | 0.64622 | 5035 ft | 247 kts | 273° |
| 2026-04-22 01:28 | 51.48608 | 0.61905 | 4871 ft | 242 kts | 274° |
| 2026-04-22 01:28 | 51.48704 | 0.59219 | 4723 ft | 241 kts | 273° |
| 2026-04-22 01:28 | 51.48801 | 0.56532 | 4576 ft | 242 kts | 273° |
| 2026-04-22 01:29 | 51.48899 | 0.53819 | 4376 ft | 243 kts | 273° |
| 2026-04-22 01:29 | 51.48996 | 0.51107 | 4219 ft | 244 kts | 273° |
| 2026-04-22 01:29 | 51.49088 | 0.48498 | 4067 ft | 244 kts | 271° |
| 2026-04-22 01:29 | 51.48779 | 0.45873 | 3899 ft | 240 kts | 241° |
| 2026-04-22 01:30 | 51.47957 | 0.43568 | 3781 ft | 237 kts | 236° |
| 2026-04-22 01:30 | 51.47399 | 0.42065 | 3694 ft | 237 kts | 235° |
| 2026-04-22 01:30 | 51.46669 | 0.40094 | 3571 ft | 236 kts | 235° |
| 2026-04-22 01:30 | 51.45836 | 0.37838 | 3427 ft | 236 kts | 236° |
| 2026-04-22 01:31 | 51.45004 | 0.35579 | 3290 ft | 234 kts | 235° |
| 2026-04-22 01:31 | 51.44175 | 0.33328 | 3156 ft | 235 kts | 235° |
| 2026-04-22 01:31 | 51.43353 | 0.31038 | 3047 ft | 239 kts | 242° |
| 2026-04-22 01:31 | 51.43075 | 0.28421 | 3008 ft | 239 kts | 272° |
| 2026-04-22 01:32 | 51.43178 | 0.25770 | 3002 ft | 240 kts | 272° |
| 2026-04-22 01:32 | 51.43271 | 0.23151 | 2979 ft | 234 kts | 272° |
| 2026-04-22 01:32 | 51.43358 | 0.20603 | 2975 ft | 224 kts | 272° |
| 2026-04-22 01:32 | 51.43440 | 0.18171 | 2953 ft | 216 kts | 272° |
| 2026-04-22 01:33 | 51.43521 | 0.15746 | 2766 ft | 219 kts | 272° |
| 2026-04-22 01:33 | 51.43599 | 0.13346 | 2608 ft | 212 kts | 272° |
| 2026-04-22 01:33 | 51.43674 | 0.11029 | 2426 ft | 203 kts | 272° |
| 2026-04-22 01:33 | 51.43744 | 0.08817 | 2249 ft | 194 kts | 272° |
| 2026-04-22 01:34 | 51.43813 | 0.06697 | 2126 ft | 191 kts | 272° |
| 2026-04-22 01:34 | 51.43880 | 0.04598 | 2026 ft | 190 kts | 272° |
| 2026-04-22 01:34 | 51.43946 | 0.02488 | 1993 ft | 188 kts | 272° |
| 2026-04-22 01:34 | 51.44013 | 0.00398 | 1988 ft | 189 kts | 272° |
| 2026-04-22 01:35 | 51.44079 | -0.01718 | 2003 ft | 190 kts | 272° |
| 2026-04-22 01:35 | 51.44145 | -0.03832 | 1997 ft | 190 kts | 272° |
| 2026-04-22 01:35 | 51.44208 | -0.05931 | 1991 ft | 184 kts | 273° |
| 2026-04-22 01:35 | 51.44271 | -0.07917 | 1958 ft | 172 kts | 273° |
| 2026-04-22 01:36 | 51.44527 | -0.09734 | 1977 ft | 159 kts | 310° |
| 2026-04-22 01:36 | 51.45321 | -0.10598 | 2011 ft | 133 kts | 358° |
| 2026-04-22 01:36 | 51.46214 | -0.10928 | 1995 ft | 131 kts | 358° |
| 2026-04-22 01:36 | 51.47085 | -0.11285 | 1990 ft | 129 kts | 358° |
| 2026-04-22 01:37 | 51.47929 | -0.11623 | 1987 ft | 128 kts | 358° |
| 2026-04-22 01:37 | 51.48807 | -0.11995 | 1973 ft | 123 kts | 9° |
| 2026-04-22 01:37 | 51.49403 | -0.11446 | 2014 ft | 95 kts | 69° |
| 2026-04-22 01:37 | 51.49826 | -0.10511 | 2011 ft | 105 kts | 54° |
| 2026-04-22 01:38 | 51.50317 | -0.09663 | 1993 ft | 103 kts | 58° |
| 2026-04-22 01:38 | 51.50641 | -0.08677 | 2004 ft | 100 kts | 75° |
| 2026-04-22 01:38 | 51.50776 | -0.07576 | 2009 ft | 101 kts | 86° |
| 2026-04-22 01:38 | 51.50817 | -0.06566 | 1993 ft | 102 kts | 87° |
| 2026-04-22 01:39 | 51.50852 | -0.05440 | 2001 ft | 100 kts | 91° |
| 2026-04-22 01:39 | 51.50832 | -0.04319 | 1991 ft | 100 kts | 92° |
| 2026-04-22 01:39 | 51.50799 | -0.03180 | 1706 ft | 108 kts | 92° |
| 2026-04-22 01:39 | 51.50764 | -0.02064 | 1520 ft | 100 kts | 92° |
| 2026-04-22 01:40 | 51.50728 | -0.00948 | 1287 ft | 103 kts | 91° |
| 2026-04-22 01:40 | 51.50692 | 0.00192 | 1018 ft | 103 kts | 90° |
| 2026-04-22 01:40 | 51.50653 | 0.01406 | 735 ft | 113 kts | 91° |
| 2026-04-22 01:40 | 51.50613 | 0.02681 | 438 ft | 115 kts | 90° |
| 2026-04-22 01:41 | 51.50573 | 0.03981 | 147 ft | 118 kts | 91° |
| 2026-04-22 01:41 | 51.50543 | 0.04946 | 27 ft | 109 kts | 90° |
| 2026-04-22 01:41 | 51.50512 | 0.05858 | 25 ft | 52 kts | 93° |
| 2026-04-22 01:41 | 51.50468 | 0.06038 | 27 ft | 11 kts | 196° |
| 2026-04-22 01:42 | 51.50425 | 0.05939 | 27 ft | 12 kts | 260° |
| 2026-04-22 01:42 | 51.50430 | 0.05804 | 24 ft | 12 kts | 274° |
| 2026-04-22 01:42 | 51.50435 | 0.05676 | 24 ft | 11 kts | 272° |
| 2026-04-22 01:42 | 51.50439 | 0.05552 | 24 ft | 11 kts | 272° |
| 2026-04-22 01:43 | 51.50442 | 0.05430 | 24 ft | 11 kts | 272° |
| 2026-04-22 01:43 | 51.50444 | 0.05313 | 24 ft | 10 kts | 272° |
| 2026-04-22 01:43 | 51.50447 | 0.05199 | 28 ft | 10 kts | 275° |
| 2026-04-22 01:43 | 51.50453 | 0.05087 | 24 ft | 10 kts | 274° |
| 2026-04-22 01:44 | 51.50463 | 0.04981 | 26 ft | 10 kts | 273° |
| 2026-04-22 01:44 | 51.50466 | 0.04878 | 24 ft | 8 kts | 272° |
| 2026-04-22 01:44 | 51.50468 | 0.04798 | 24 ft | 7 kts | 273° |
| 2026-04-22 01:44 | 51.50470 | 0.04701 | 24 ft | 10 kts | 272° |
| 2026-04-22 01:45 | 51.50462 | 0.04648 | 24 ft | 3 kts | 215° |
| 2026-04-22 01:45 | 51.50443 | 0.04646 | 24 ft | 0 kts | 182° |
| 2026-04-22 01:45 | 51.50438 | 0.04646 | 24 ft | 0 kts | 182° |